sensor_id;sensor_type;location;lat;lon;timestamp;pressure;altitude;pressure_sealevel;temperature;humidity
67842;BME280;54642;59.126;37.876;2023-04-06T00:02:13;101374.78;;;3.85;73.65
67842;BME280;54642;59.126;37.876;2023-04-06T00:04:39;101362.50;;;3.78;73.53
67842;BME280;54642;59.126;37.876;2023-04-06T00:07:05;101321.63;;;3.42;73.58
67842;BME280;54642;59.126;37.876;2023-04-06T00:09:31;101375.00;;;3.70;73.54
67842;BME280;54642;59.126;37.876;2023-04-06T00:11:57;101377.41;;;3.67;73.74
67842;BME280;54642;59.126;37.876;2023-04-06T00:14:23;101374.44;;;3.58;73.74
67842;BME280;54642;59.126;37.876;2023-04-06T00:16:49;101370.81;;;3.53;73.62
67842;BME280;54642;59.126;37.876;2023-04-06T00:19:15;101330.63;;;3.14;73.46
67842;BME280;54642;59.126;37.876;2023-04-06T00:21:41;101362.16;;;3.31;73.88
67842;BME280;54642;59.126;37.876;2023-04-06T00:24:07;101386.56;;;3.42;73.57
67842;BME280;54642;59.126;37.876;2023-04-06T00:26:32;101385.78;;;3.43;73.67
67842;BME280;54642;59.126;37.876;2023-04-06T00:28:58;101395.50;;;3.51;73.44
67842;BME280;54642;59.126;37.876;2023-04-06T00:31:24;101396.28;;;3.50;73.45
67842;BME280;54642;59.126;37.876;2023-04-06T00:33:50;101392.72;;;3.46;73.39
67842;BME280;54642;59.126;37.876;2023-04-06T00:36:16;101367.88;;;3.26;73.21
67842;BME280;54642;59.126;37.876;2023-04-06T00:38:42;101394.94;;;3.38;73.30
67842;BME280;54642;59.126;37.876;2023-04-06T00:41:09;101380.72;;;3.27;73.50
67842;BME280;54642;59.126;37.876;2023-04-06T00:43:35;101399.91;;;3.35;73.26
67842;BME280;54642;59.126;37.876;2023-04-06T00:46:01;101402.47;;;3.35;72.97
67842;BME280;54642;59.126;37.876;2023-04-06T00:48:27;101403.59;;;3.22;73.16
67842;BME280;54642;59.126;37.876;2023-04-06T00:50:53;101394.47;;;3.10;73.43
67842;BME280;54642;59.126;37.876;2023-04-06T00:53:19;101379.38;;;2.98;73.60
67842;BME280;54642;59.126;37.876;2023-04-06T00:55:45;101402.25;;;3.13;73.39
67842;BME280;54642;59.126;37.876;2023-04-06T00:58:11;101390.28;;;3.12;73.76
67842;BME280;54642;59.126;37.876;2023-04-06T01:00:47;101397.59;;;3.22;73.11
67842;BME280;54642;59.126;37.876;2023-04-06T01:03:17;101412.75;;;3.17;73.20
67842;BME280;54642;59.126;37.876;2023-04-06T01:05:43;101394.16;;;3.03;72.94
67842;BME280;54642;59.126;37.876;2023-04-06T01:08:24;101345.44;;;2.66;73.06
67842;BME280;54642;59.126;37.876;2023-04-06T01:10:55;101407.47;;;2.96;73.34
67842;BME280;54642;59.126;37.876;2023-04-06T01:13:27;101413.13;;;2.89;73.25
67842;BME280;54642;59.126;37.876;2023-04-06T01:15:57;101372.72;;;2.65;73.22
67842;BME280;54642;59.126;37.876;2023-04-06T01:18:32;101339.16;;;2.41;73.26
67842;BME280;54642;59.126;37.876;2023-04-06T01:21:15;101409.00;;;2.75;73.52
67842;BME280;54642;59.126;37.876;2023-04-06T01:23:52;101412.69;;;2.80;73.23
67842;BME280;54642;59.126;37.876;2023-04-06T01:26:24;101371.34;;;2.54;73.20
67842;BME280;54642;59.126;37.876;2023-04-06T01:28:52;101407.91;;;2.70;73.22
67842;BME280;54642;59.126;37.876;2023-04-06T01:31:25;101416.41;;;2.69;73.40
67842;BME280;54642;59.126;37.876;2023-04-06T01:33:52;101414.78;;;2.71;73.45
67842;BME280;54642;59.126;37.876;2023-04-06T01:36:22;101361.38;;;2.42;73.19
67842;BME280;54642;59.126;37.876;2023-04-06T01:38:55;101435.28;;;2.71;73.07
67842;BME280;54642;59.126;37.876;2023-04-06T01:41:29;101417.94;;;2.65;73.21
67842;BME280;54642;59.126;37.876;2023-04-06T01:43:55;101415.72;;;2.55;73.23
67842;BME280;54642;59.126;37.876;2023-04-06T01:46:24;101431.59;;;2.65;73.18
67842;BME280;54642;59.126;37.876;2023-04-06T01:48:50;101430.66;;;2.63;73.02
67842;BME280;54642;59.126;37.876;2023-04-06T01:51:42;101428.88;;;2.62;73.04
67842;BME280;54642;59.126;37.876;2023-04-06T01:54:11;101365.81;;;2.28;72.86
67842;BME280;54642;59.126;37.876;2023-04-06T01:57:16;101427.78;;;2.57;72.68
67842;BME280;54642;59.126;37.876;2023-04-06T02:00:10;101398.19;;;2.28;72.96
67842;BME280;54642;59.126;37.876;2023-04-06T02:02:39;101437.34;;;2.43;73.22
67842;BME280;54642;59.126;37.876;2023-04-06T02:05:11;101424.97;;;2.35;73.01
67842;BME280;54642;59.126;37.876;2023-04-06T02:07:38;101426.78;;;2.37;72.93
67842;BME280;54642;59.126;37.876;2023-04-06T02:10:11;101433.88;;;2.43;72.71
67842;BME280;54642;59.126;37.876;2023-04-06T02:12:37;101442.38;;;2.42;72.92
67842;BME280;54642;59.126;37.876;2023-04-06T02:15:06;101431.31;;;2.43;73.05
67842;BME280;54642;59.126;37.876;2023-04-06T02:17:32;101429.34;;;2.37;72.84
67842;BME280;54642;59.126;37.876;2023-04-06T02:19:58;101409.16;;;2.25;72.92
67842;BME280;54642;59.126;37.876;2023-04-06T02:22:24;101419.97;;;2.38;72.80
67842;BME280;54642;59.126;37.876;2023-04-06T02:24:50;101424.47;;;2.42;72.56
67842;BME280;54642;59.126;37.876;2023-04-06T02:27:16;101443.38;;;2.62;72.12
67842;BME280;54642;59.126;37.876;2023-04-06T02:29:46;101444.06;;;2.59;72.37
67842;BME280;54642;59.126;37.876;2023-04-06T02:32:13;101435.00;;;2.48;72.54
67842;BME280;54642;59.126;37.876;2023-04-06T02:34:39;101434.47;;;2.37;72.42
67842;BME280;54642;59.126;37.876;2023-04-06T02:37:05;101436.09;;;2.53;72.16
67842;BME280;54642;59.126;37.876;2023-04-06T02:39:31;101450.88;;;2.59;72.44
67842;BME280;54642;59.126;37.876;2023-04-06T02:41:57;101437.09;;;2.39;72.05
67842;BME280;54642;59.126;37.876;2023-04-06T02:44:25;101450.13;;;2.43;72.09
67842;BME280;54642;59.126;37.876;2023-04-06T02:46:50;101441.47;;;2.41;72.28
67842;BME280;54642;59.126;37.876;2023-04-06T02:49:16;101467.84;;;2.57;72.00
67842;BME280;54642;59.126;37.876;2023-04-06T02:51:43;101403.06;;;2.23;71.89
67842;BME280;54642;59.126;37.876;2023-04-06T02:54:20;101452.81;;;2.46;71.53
67842;BME280;54642;59.126;37.876;2023-04-06T02:56:46;101472.50;;;2.47;71.83
67842;BME280;54642;59.126;37.876;2023-04-06T02:59:13;101436.00;;;2.17;71.87
67842;BME280;54642;59.126;37.876;2023-04-06T03:01:44;101473.38;;;2.48;71.86
67842;BME280;54642;59.126;37.876;2023-04-06T03:04:10;101472.72;;;2.52;72.01
67842;BME280;54642;59.126;37.876;2023-04-06T03:06:36;101475.44;;;2.55;71.63
67842;BME280;54642;59.126;37.876;2023-04-06T03:09:12;101463.88;;;2.45;71.54
67842;BME280;54642;59.126;37.876;2023-04-06T03:11:41;101395.22;;;2.02;71.72
67842;BME280;54642;59.126;37.876;2023-04-06T03:14:07;101418.53;;;2.08;71.73
67842;BME280;54642;59.126;37.876;2023-04-06T03:16:33;101465.09;;;2.36;71.37
67842;BME280;54642;59.126;37.876;2023-04-06T03:19:00;101478.28;;;2.43;71.35
67842;BME280;54642;59.126;37.876;2023-04-06T03:21:27;101468.03;;;2.27;71.50
67842;BME280;54642;59.126;37.876;2023-04-06T03:23:54;101481.88;;;2.31;71.52
67842;BME280;54642;59.126;37.876;2023-04-06T03:26:20;101469.34;;;2.19;71.26
67842;BME280;54642;59.126;37.876;2023-04-06T03:28:48;101428.59;;;2.05;71.32
67842;BME280;54642;59.126;37.876;2023-04-06T03:31:15;101470.84;;;2.32;71.20
67842;BME280;54642;59.126;37.876;2023-04-06T03:34:06;101426.97;;;2.07;71.42
67842;BME280;54642;59.126;37.876;2023-04-06T03:36:35;101479.94;;;2.43;71.26
67842;BME280;54642;59.126;37.876;2023-04-06T03:39:02;101468.59;;;2.38;70.94
67842;BME280;54642;59.126;37.876;2023-04-06T03:41:31;101406.31;;;2.03;70.90
67842;BME280;54642;59.126;37.876;2023-04-06T03:44:30;101468.25;;;2.48;70.76
67842;BME280;54642;59.126;37.876;2023-04-06T03:46:56;101481.88;;;2.47;70.71
67842;BME280;54642;59.126;37.876;2023-04-06T03:49:22;101450.09;;;2.25;70.72
67842;BME280;54642;59.126;37.876;2023-04-06T03:51:50;101472.19;;;2.41;70.79
67842;BME280;54642;59.126;37.876;2023-04-06T03:54:16;101332.09;;;1.52;70.68
67842;BME280;54642;59.126;37.876;2023-04-06T03:56:42;101480.59;;;2.39;70.37
67842;BME280;54642;59.126;37.876;2023-04-06T03:59:08;101408.53;;;1.97;70.51
67842;BME280;54642;59.126;37.876;2023-04-06T04:01:34;101492.25;;;2.34;70.45
67842;BME280;54642;59.126;37.876;2023-04-06T04:04:01;101506.97;;;2.54;70.21
67842;BME280;54642;59.126;37.876;2023-04-06T04:06:30;101511.44;;;2.58;70.21
67842;BME280;54642;59.126;37.876;2023-04-06T04:08:56;101495.59;;;2.65;70.26
67842;BME280;54642;59.126;37.876;2023-04-06T04:11:22;101412.03;;;2.15;70.01
67842;BME280;54642;59.126;37.876;2023-04-06T04:13:54;101508.06;;;2.76;69.92
67842;BME280;54642;59.126;37.876;2023-04-06T04:16:20;101490.75;;;2.88;69.83
67842;BME280;54642;59.126;37.876;2023-04-06T04:18:46;101470.53;;;2.76;69.38
67842;BME280;54642;59.126;37.876;2023-04-06T04:21:14;101470.94;;;2.67;69.36
67842;BME280;54642;59.126;37.876;2023-04-06T04:23:40;101504.50;;;2.90;69.31
67842;BME280;54642;59.126;37.876;2023-04-06T04:26:06;101518.53;;;2.98;69.42
67842;BME280;54642;59.126;37.876;2023-04-06T04:28:32;101508.16;;;2.95;69.16
67842;BME280;54642;59.126;37.876;2023-04-06T04:30:58;101496.28;;;2.79;69.09
67842;BME280;54642;59.126;37.876;2023-04-06T04:33:23;101518.53;;;2.98;68.84
67842;BME280;54642;59.126;37.876;2023-04-06T04:35:52;101508.16;;;2.95;68.80
67842;BME280;54642;59.126;37.876;2023-04-06T04:38:20;101487.88;;;2.82;68.87
67842;BME280;54642;59.126;37.876;2023-04-06T04:40:50;101489.56;;;2.81;68.98
67842;BME280;54642;59.126;37.876;2023-04-06T04:43:16;101473.09;;;2.76;68.97
67842;BME280;54642;59.126;37.876;2023-04-06T04:45:43;101520.91;;;3.12;68.71
67842;BME280;54642;59.126;37.876;2023-04-06T04:48:22;101489.75;;;3.02;68.58
67842;BME280;54642;59.126;37.876;2023-04-06T04:50:56;101518.72;;;3.19;68.23
67842;BME280;54642;59.126;37.876;2023-04-06T04:53:25;101521.34;;;3.21;68.21
67842;BME280;54642;59.126;37.876;2023-04-06T04:55:56;101520.63;;;3.23;68.09
67842;BME280;54642;59.126;37.876;2023-04-06T04:58:22;101516.47;;;3.26;68.11
67842;BME280;54642;59.126;37.876;2023-04-06T05:00:53;101561.19;;;3.32;67.89
67842;BME280;54642;59.126;37.876;2023-04-06T05:03:25;101542.44;;;3.33;67.87
67842;BME280;54642;59.126;37.876;2023-04-06T05:05:58;101510.38;;;3.23;67.88
67842;BME280;54642;59.126;37.876;2023-04-06T05:08:27;101531.84;;;3.43;67.71
67842;BME280;54642;59.126;37.876;2023-04-06T05:10:53;101532.63;;;3.42;67.60
67842;BME280;54642;59.126;37.876;2023-04-06T05:13:20;101554.75;;;3.40;67.69
67842;BME280;54642;59.126;37.876;2023-04-06T05:15:47;101530.44;;;3.50;67.52
67842;BME280;54642;59.126;37.876;2023-04-06T05:18:33;101524.88;;;3.41;67.41
67842;BME280;54642;59.126;37.876;2023-04-06T05:21:00;101472.69;;;3.21;67.65
67842;BME280;54642;59.126;37.876;2023-04-06T05:23:35;101519.06;;;3.63;66.96
67842;BME280;54642;59.126;37.876;2023-04-06T05:26:02;101534.56;;;3.84;67.21
67842;BME280;54642;59.126;37.876;2023-04-06T05:28:28;101485.53;;;3.58;67.15
67842;BME280;54642;59.126;37.876;2023-04-06T05:30:54;101539.25;;;3.93;66.48
67842;BME280;54642;59.126;37.876;2023-04-06T05:33:20;101540.59;;;4.04;66.65
67842;BME280;54642;59.126;37.876;2023-04-06T05:36:01;101545.97;;;4.09;66.43
67842;BME280;54642;59.126;37.876;2023-04-06T05:38:29;101530.72;;;4.12;66.18
67842;BME280;54642;59.126;37.876;2023-04-06T05:40:59;101542.00;;;4.35;66.38
67842;BME280;54642;59.126;37.876;2023-04-06T05:43:29;101504.16;;;4.11;66.22
67842;BME280;54642;59.126;37.876;2023-04-06T05:45:57;101527.06;;;4.26;66.11
67842;BME280;54642;59.126;37.876;2023-04-06T05:48:23;101546.19;;;4.33;66.09
67842;BME280;54642;59.126;37.876;2023-04-06T05:50:50;101510.13;;;4.10;65.54
67842;BME280;54642;59.126;37.876;2023-04-06T05:53:19;101511.91;;;4.13;65.71
67842;BME280;54642;59.126;37.876;2023-04-06T05:55:52;101533.63;;;4.39;65.58
67842;BME280;54642;59.126;37.876;2023-04-06T05:58:20;101526.63;;;4.56;65.68
67842;BME280;54642;59.126;37.876;2023-04-06T06:00:47;101546.84;;;4.68;65.02
67842;BME280;54642;59.126;37.876;2023-04-06T06:03:16;101543.72;;;4.75;65.17
67842;BME280;54642;59.126;37.876;2023-04-06T06:05:47;101548.22;;;4.81;64.49
67842;BME280;54642;59.126;37.876;2023-04-06T06:08:19;101542.59;;;4.89;64.77
67842;BME280;54642;59.126;37.876;2023-04-06T06:10:47;101534.91;;;4.89;64.39
67842;BME280;54642;59.126;37.876;2023-04-06T06:13:15;101530.47;;;4.85;63.87
67842;BME280;54642;59.126;37.876;2023-04-06T06:15:41;101489.22;;;4.82;63.90
67842;BME280;54642;59.126;37.876;2023-04-06T06:18:08;101550.50;;;5.36;63.90
67842;BME280;54642;59.126;37.876;2023-04-06T06:20:34;101526.44;;;5.34;63.53
67842;BME280;54642;59.126;37.876;2023-04-06T06:23:03;101535.91;;;5.79;63.33
67842;BME280;54642;59.126;37.876;2023-04-06T06:25:29;101517.44;;;5.89;63.05
67842;BME280;54642;59.126;37.876;2023-04-06T06:27:57;101531.16;;;5.89;62.36
67842;BME280;54642;59.126;37.876;2023-04-06T06:30:23;101486.09;;;5.77;62.20
67842;BME280;54642;59.126;37.876;2023-04-06T06:32:50;101539.50;;;6.05;61.96
67842;BME280;54642;59.126;37.876;2023-04-06T06:35:16;101528.44;;;6.07;62.10
67842;BME280;54642;59.126;37.876;2023-04-06T06:37:42;101517.19;;;6.28;61.95
67842;BME280;54642;59.126;37.876;2023-04-06T06:40:12;101530.47;;;6.64;61.69
67842;BME280;54642;59.126;37.876;2023-04-06T06:42:44;101530.03;;;6.78;61.33
67842;BME280;54642;59.126;37.876;2023-04-06T06:45:28;101531.63;;;6.74;61.00
67842;BME280;54642;59.126;37.876;2023-04-06T06:47:55;101524.75;;;6.49;60.40
67842;BME280;54642;59.126;37.876;2023-04-06T06:50:21;101491.31;;;6.25;60.54
67842;BME280;54642;59.126;37.876;2023-04-06T06:52:47;101528.25;;;6.49;60.53
67842;BME280;54642;59.126;37.876;2023-04-06T06:55:13;101523.59;;;6.65;60.22
67842;BME280;54642;59.126;37.876;2023-04-06T06:57:40;101523.91;;;6.74;60.02
67842;BME280;54642;59.126;37.876;2023-04-06T07:00:09;101524.97;;;7.05;59.93
67842;BME280;54642;59.126;37.876;2023-04-06T07:02:35;101511.22;;;7.06;59.69
67842;BME280;54642;59.126;37.876;2023-04-06T07:05:02;101511.59;;;7.17;58.78
67842;BME280;54642;59.126;37.876;2023-04-06T07:07:31;101498.91;;;6.97;58.62
67842;BME280;54642;59.126;37.876;2023-04-06T07:09:58;101525.38;;;7.17;58.35
67842;BME280;54642;59.126;37.876;2023-04-06T07:12:24;101527.44;;;7.29;58.07
67842;BME280;54642;59.126;37.876;2023-04-06T07:14:49;101520.06;;;7.40;57.79
67842;BME280;54642;59.126;37.876;2023-04-06T07:17:15;101525.75;;;7.57;57.71
67842;BME280;54642;59.126;37.876;2023-04-06T07:19:41;101520.19;;;7.72;57.35
67842;BME280;54642;59.126;37.876;2023-04-06T07:22:07;101526.81;;;7.92;56.96
67842;BME280;54642;59.126;37.876;2023-04-06T07:24:33;101521.44;;;8.15;56.69
67842;BME280;54642;59.126;37.876;2023-04-06T07:26:59;101515.34;;;8.13;56.11
67842;BME280;54642;59.126;37.876;2023-04-06T07:29:28;101518.28;;;7.95;55.74
67842;BME280;54642;59.126;37.876;2023-04-06T07:31:55;101522.75;;;8.00;55.44
67842;BME280;54642;59.126;37.876;2023-04-06T07:34:21;101526.06;;;7.96;55.26
67842;BME280;54642;59.126;37.876;2023-04-06T07:36:48;101521.47;;;7.86;54.70
67842;BME280;54642;59.126;37.876;2023-04-06T07:39:14;101491.25;;;7.82;55.13
67842;BME280;54642;59.126;37.876;2023-04-06T07:41:41;101501.63;;;8.14;55.07
67842;BME280;54642;59.126;37.876;2023-04-06T07:44:07;101507.91;;;8.24;54.91
67842;BME280;54642;59.126;37.876;2023-04-06T07:46:33;101490.78;;;8.27;54.79
67842;BME280;54642;59.126;37.876;2023-04-06T07:49:00;101505.56;;;8.33;53.86
67842;BME280;54642;59.126;37.876;2023-04-06T07:51:30;101511.69;;;8.36;54.41
67842;BME280;54642;59.126;37.876;2023-04-06T07:53:56;101515.47;;;8.46;54.41
67842;BME280;54642;59.126;37.876;2023-04-06T07:56:22;101492.97;;;8.44;54.26
67842;BME280;54642;59.126;37.876;2023-04-06T07:58:48;101500.81;;;8.47;54.19
67842;BME280;54642;59.126;37.876;2023-04-06T08:01:14;101508.56;;;8.47;53.85
67842;BME280;54642;59.126;37.876;2023-04-06T08:03:40;101504.84;;;8.69;53.33
67842;BME280;54642;59.126;37.876;2023-04-06T08:06:06;101468.59;;;8.66;53.41
67842;BME280;54642;59.126;37.876;2023-04-06T08:08:32;101507.97;;;9.25;53.28
67842;BME280;54642;59.126;37.876;2023-04-06T08:10:58;101505.44;;;9.27;52.83
67842;BME280;54642;59.126;37.876;2023-04-06T08:13:24;101494.69;;;9.11;52.60
67842;BME280;54642;59.126;37.876;2023-04-06T08:15:50;101481.72;;;9.10;53.04
67842;BME280;54642;59.126;37.876;2023-04-06T08:18:15;101515.78;;;9.27;52.45
67842;BME280;54642;59.126;37.876;2023-04-06T08:20:41;101510.38;;;9.18;52.21
67842;BME280;54642;59.126;37.876;2023-04-06T08:23:07;101519.25;;;9.29;52.06
67842;BME280;54642;59.126;37.876;2023-04-06T08:25:36;101513.84;;;9.56;51.69
67842;BME280;54642;59.126;37.876;2023-04-06T08:28:03;101507.34;;;9.73;51.47
67842;BME280;54642;59.126;37.876;2023-04-06T08:30:29;101502.19;;;9.75;51.19
67842;BME280;54642;59.126;37.876;2023-04-06T08:32:55;101490.44;;;9.50;50.57
67842;BME280;54642;59.126;37.876;2023-04-06T08:35:21;101492.13;;;9.49;50.74
67842;BME280;54642;59.126;37.876;2023-04-06T08:37:47;101508.09;;;9.68;50.54
67842;BME280;54642;59.126;37.876;2023-04-06T08:40:13;101490.78;;;9.67;50.48
67842;BME280;54642;59.126;37.876;2023-04-06T08:42:40;101503.41;;;9.92;50.16
67842;BME280;54642;59.126;37.876;2023-04-06T08:45:08;101512.41;;;10.10;50.00
67842;BME280;54642;59.126;37.876;2023-04-06T08:47:36;101458.63;;;9.97;50.02
67842;BME280;54642;59.126;37.876;2023-04-06T08:50:06;101494.75;;;9.90;49.04
67842;BME280;54642;59.126;37.876;2023-04-06T08:52:33;101496.13;;;9.73;49.23
67842;BME280;54642;59.126;37.876;2023-04-06T08:55:00;101499.41;;;9.67;49.27
67842;BME280;54642;59.126;37.876;2023-04-06T08:57:27;101449.03;;;9.50;48.89
67842;BME280;54642;59.126;37.876;2023-04-06T08:59:54;101503.28;;;9.86;49.49
67842;BME280;54642;59.126;37.876;2023-04-06T09:02:21;101502.25;;;9.78;49.03
67842;BME280;54642;59.126;37.876;2023-04-06T09:04:52;101487.88;;;9.92;49.30
67842;BME280;54642;59.126;37.876;2023-04-06T09:07:19;101507.28;;;10.13;48.93
67842;BME280;54642;59.126;37.876;2023-04-06T09:09:45;101469.75;;;9.91;48.50
67842;BME280;54642;59.126;37.876;2023-04-06T09:12:30;101497.66;;;10.06;48.23
67842;BME280;54642;59.126;37.876;2023-04-06T09:14:58;101443.47;;;9.74;48.67
67842;BME280;54642;59.126;37.876;2023-04-06T09:17:32;101488.81;;;9.96;48.12
67842;BME280;54642;59.126;37.876;2023-04-06T09:20:00;101473.75;;;9.78;48.12
67842;BME280;54642;59.126;37.876;2023-04-06T09:22:36;101492.66;;;10.15;48.03
67842;BME280;54642;59.126;37.876;2023-04-06T09:25:03;101485.94;;;10.25;48.32
67842;BME280;54642;59.126;37.876;2023-04-06T09:27:32;101493.78;;;10.29;47.80
67842;BME280;54642;59.126;37.876;2023-04-06T09:30:06;101496.38;;;10.29;47.76
67842;BME280;54642;59.126;37.876;2023-04-06T09:32:43;101490.38;;;10.30;47.96
67842;BME280;54642;59.126;37.876;2023-04-06T09:35:10;101453.94;;;10.21;47.94
67842;BME280;54642;59.126;37.876;2023-04-06T09:37:36;101488.63;;;10.75;48.17
67842;BME280;54642;59.126;37.876;2023-04-06T09:40:06;101477.41;;;10.78;47.11
67842;BME280;54642;59.126;37.876;2023-04-06T09:42:34;101464.94;;;10.55;47.29
67842;BME280;54642;59.126;37.876;2023-04-06T09:45:01;101493.66;;;10.67;46.64
67842;BME280;54642;59.126;37.876;2023-04-06T09:47:28;101454.19;;;10.35;47.21
67842;BME280;54642;59.126;37.876;2023-04-06T09:49:58;101459.19;;;10.26;47.74
67842;BME280;54642;59.126;37.876;2023-04-06T09:52:26;101496.69;;;10.43;47.17
67842;BME280;54642;59.126;37.876;2023-04-06T09:54:55;101415.50;;;9.99;47.65
67842;BME280;54642;59.126;37.876;2023-04-06T09:57:29;101478.59;;;10.48;47.02
67842;BME280;54642;59.126;37.876;2023-04-06T10:02:50;101501.28;;;10.58;46.81
67842;BME280;54642;59.126;37.876;2023-04-06T10:07:50;101482.00;;;10.44;46.24
67842;BME280;54642;59.126;37.876;2023-04-06T10:10:19;101478.44;;;10.39;46.80
67842;BME280;54642;59.126;37.876;2023-04-06T10:12:47;101483.09;;;10.57;46.91
67842;BME280;54642;59.126;37.876;2023-04-06T10:15:13;101477.91;;;10.57;46.86
67842;BME280;54642;59.126;37.876;2023-04-06T10:17:39;101476.75;;;10.41;46.29
67842;BME280;54642;59.126;37.876;2023-04-06T10:20:12;101471.78;;;10.52;46.22
67842;BME280;54642;59.126;37.876;2023-04-06T10:22:53;101443.13;;;10.44;46.49
67842;BME280;54642;59.126;37.876;2023-04-06T10:25:32;101488.56;;;10.72;46.64
67842;BME280;54642;59.126;37.876;2023-04-06T10:28:05;101473.47;;;10.49;46.28
67842;BME280;54642;59.126;37.876;2023-04-06T10:30:41;101484.28;;;10.28;46.13
67842;BME280;54642;59.126;37.876;2023-04-06T10:33:19;101434.69;;;10.10;46.30
67842;BME280;54642;59.126;37.876;2023-04-06T10:35:46;101438.56;;;10.30;46.62
67842;BME280;54642;59.126;37.876;2023-04-06T10:38:12;101482.31;;;10.61;46.24
67842;BME280;54642;59.126;37.876;2023-04-06T10:40:41;101473.50;;;10.51;46.59
67842;BME280;54642;59.126;37.876;2023-04-06T10:43:12;101463.78;;;10.41;46.36
67842;BME280;54642;59.126;37.876;2023-04-06T10:45:40;101480.69;;;10.67;46.33
67842;BME280;54642;59.126;37.876;2023-04-06T10:48:16;101464.44;;;10.78;46.30
67842;BME280;54642;59.126;37.876;2023-04-06T10:50:51;101431.25;;;10.57;45.90
67842;BME280;54642;59.126;37.876;2023-04-06T10:55:50;101477.19;;;10.65;46.01
67842;BME280;54642;59.126;37.876;2023-04-06T10:58:16;101468.97;;;10.90;46.18
67842;BME280;54642;59.126;37.876;2023-04-06T11:00:47;101476.91;;;10.99;45.80
67842;BME280;54642;59.126;37.876;2023-04-06T11:03:13;101468.16;;;10.94;45.58
67842;BME280;54642;59.126;37.876;2023-04-06T11:05:50;101465.56;;;10.94;45.87
67842;BME280;54642;59.126;37.876;2023-04-06T11:08:29;101477.34;;;10.73;45.37
67842;BME280;54642;59.126;37.876;2023-04-06T11:11:09;101406.78;;;10.41;45.52
67842;BME280;54642;59.126;37.876;2023-04-06T11:13:57;101464.53;;;10.82;45.65
67842;BME280;54642;59.126;37.876;2023-04-06T11:16:27;101461.91;;;10.81;45.46
67842;BME280;54642;59.126;37.876;2023-04-06T11:18:55;101464.34;;;10.70;45.23
67842;BME280;54642;59.126;37.876;2023-04-06T11:21:37;101469.41;;;10.62;45.76
67842;BME280;54642;59.126;37.876;2023-04-06T11:24:20;101459.81;;;10.60;45.50
67842;BME280;54642;59.126;37.876;2023-04-06T11:26:48;101430.53;;;10.65;45.44
67842;BME280;54642;59.126;37.876;2023-04-06T11:29:18;101448.19;;;10.88;45.34
67842;BME280;54642;59.126;37.876;2023-04-06T11:31:58;101448.47;;;11.06;44.65
67842;BME280;54642;59.126;37.876;2023-04-06T11:34:25;101420.22;;;10.68;44.72
67842;BME280;54642;59.126;37.876;2023-04-06T11:36:59;101447.81;;;10.65;44.43
67842;BME280;54642;59.126;37.876;2023-04-06T11:39:27;101454.75;;;10.66;44.74
67842;BME280;54642;59.126;37.876;2023-04-06T11:41:54;101408.06;;;10.64;44.93
67842;BME280;54642;59.126;37.876;2023-04-06T11:47:00;101458.72;;;10.97;44.76
67842;BME280;54642;59.126;37.876;2023-04-06T11:49:27;101460.31;;;10.89;45.07
67842;BME280;54642;59.126;37.876;2023-04-06T11:51:55;101451.66;;;10.88;44.55
67842;BME280;54642;59.126;37.876;2023-04-06T11:54:37;101444.94;;;11.01;44.81
67842;BME280;54642;59.126;37.876;2023-04-06T11:57:04;101438.03;;;11.00;44.36
67842;BME280;54642;59.126;37.876;2023-04-06T11:59:31;101439.72;;;10.98;44.81
67842;BME280;54642;59.126;37.876;2023-04-06T12:01:58;101428.94;;;10.72;44.79
67842;BME280;54642;59.126;37.876;2023-04-06T12:04:24;101390.81;;;10.66;44.17
67842;BME280;54642;59.126;37.876;2023-04-06T12:06:50;101439.16;;;11.18;44.17
67842;BME280;54642;59.126;37.876;2023-04-06T12:09:16;101439.31;;;11.29;43.87
67842;BME280;54642;59.126;37.876;2023-04-06T12:11:45;101427.25;;;11.34;44.01
67842;BME280;54642;59.126;37.876;2023-04-06T12:14:12;101421.31;;;11.42;43.53
67842;BME280;54642;59.126;37.876;2023-04-06T12:16:38;101376.66;;;11.02;43.38
67842;BME280;54642;59.126;37.876;2023-04-06T12:19:05;101434.75;;;11.14;43.68
67842;BME280;54642;59.126;37.876;2023-04-06T12:21:31;101426.78;;;11.01;43.75
67842;BME280;54642;59.126;37.876;2023-04-06T12:23:58;101429.78;;;11.28;43.94
67842;BME280;54642;59.126;37.876;2023-04-06T12:26:25;101432.38;;;11.29;43.45
67842;BME280;54642;59.126;37.876;2023-04-06T12:28:51;101429.88;;;11.35;43.34
67842;BME280;54642;59.126;37.876;2023-04-06T12:31:17;101418.00;;;11.53;43.18
67842;BME280;54642;59.126;37.876;2023-04-06T12:33:46;101418.91;;;11.56;43.22
67842;BME280;54642;59.126;37.876;2023-04-06T12:36:13;101415.31;;;11.45;43.27
67842;BME280;54642;59.126;37.876;2023-04-06T12:38:39;101341.41;;;11.17;43.00
67842;BME280;54642;59.126;37.876;2023-04-06T12:41:06;101424.34;;;11.76;42.74
67842;BME280;54642;59.126;37.876;2023-04-06T12:43:32;101419.81;;;11.60;42.87
67842;BME280;54642;59.126;37.876;2023-04-06T12:45:58;101364.19;;;11.39;42.90
67842;BME280;54642;59.126;37.876;2023-04-06T12:48:25;101378.47;;;11.75;42.77
67842;BME280;54642;59.126;37.876;2023-04-06T12:51:01;101406.59;;;12.12;42.20
67842;BME280;54642;59.126;37.876;2023-04-06T12:53:27;101414.31;;;12.04;42.39
67842;BME280;54642;59.126;37.876;2023-04-06T12:55:54;101408.47;;;12.25;41.96
67842;BME280;54642;59.126;37.876;2023-04-06T12:58:21;101368.44;;;12.06;42.13
67842;BME280;54642;59.126;37.876;2023-04-06T13:00:48;101411.84;;;12.19;41.58
67842;BME280;54642;59.126;37.876;2023-04-06T13:03:16;101387.59;;;12.17;42.08
67842;BME280;54642;59.126;37.876;2023-04-06T13:05:45;101402.13;;;11.98;41.10
67842;BME280;54642;59.126;37.876;2023-04-06T13:08:13;101405.22;;;11.68;42.04